createdAt,value
2019-04-27T00:00:47.269Z,41.58
2019-04-27T00:03:23.345Z,46.08
2019-04-27T00:05:55.241Z,37.35
2019-04-27T00:08:39.042Z,42.35
2019-04-27T00:11:23.601Z,46.30
2019-04-27T00:13:50.203Z,46.88
2019-04-27T00:16:21.369Z,37.20
2019-04-27T00:18:56.339Z,44.88
2019-04-27T00:21:36.774Z,46.85
2019-04-27T00:24:03.564Z,47.17
2019-04-27T00:26:29.828Z,47.57
2019-04-27T00:28:56.329Z,45.75
2019-04-27T00:31:23.402Z,43.83
2019-04-27T00:33:50.124Z,48.85
2019-04-27T00:36:30.902Z,48.25
2019-04-27T00:39:03.471Z,49.83
2019-04-27T00:41:30.158Z,47.67
2019-04-27T00:43:56.732Z,57.15
2019-04-27T00:46:23.429Z,41.48
2019-04-27T00:48:50.201Z,39.57
2019-04-27T00:51:16.665Z,46.80
2019-04-27T00:53:43.647Z,50.97
2019-04-27T00:56:13.959Z,41.45
2019-04-27T00:58:59.033Z,44.10
2019-04-27T01:01:30.289Z,51.90
2019-04-27T01:03:58.709Z,46.30
2019-04-27T01:06:25.680Z,45.35
2019-04-27T01:08:53.119Z,43.17
2019-04-27T01:11:19.828Z,49.20
2019-04-27T01:13:46.388Z,54.60
2019-04-27T01:16:17.442Z,61.30
2019-04-27T01:18:42.322Z,42.03
2019-04-27T01:21:09.329Z,50.73
2019-04-27T01:23:35.638Z,53.35
2019-04-27T01:26:13.086Z,39.42
2019-04-27T01:28:47.063Z,47.95
2019-04-27T01:31:19.222Z,47.07
2019-04-27T01:33:46.131Z,48.40
2019-04-27T01:36:12.632Z,39.20
2019-04-27T01:38:41.061Z,50.73
2019-04-27T01:41:08.988Z,53.90
2019-04-27T01:43:35.543Z,57.37
2019-04-27T01:46:02.020Z,49.43
2019-04-27T01:48:30.557Z,50.03
2019-04-27T01:50:59.259Z,49.90
2019-04-27T01:53:26.511Z,52.57
2019-04-27T01:55:53.447Z,52.50
2019-04-27T01:58:20.290Z,52.60
2019-04-27T02:01:05.259Z,55.80
2019-04-27T02:03:51.759Z,58.23
2019-04-27T02:06:19.085Z,58.33
2019-04-27T02:08:47.157Z,49.17
2019-04-27T02:11:14.141Z,52.70
2019-04-27T02:13:40.665Z,58.78
2019-04-27T02:16:09.006Z,68.73
2019-04-27T02:18:38.272Z,58.33
2019-04-27T02:21:04.828Z,59.77
2019-04-27T02:23:31.451Z,72.70
2019-04-27T02:25:58.608Z,56.80
2019-04-27T02:28:36.302Z,54.17
2019-04-27T02:31:09.823Z,59.87
2019-04-27T02:33:40.180Z,51.17
2019-04-27T02:36:06.965Z,52.47
2019-04-27T02:38:33.364Z,47.13
2019-04-27T02:41:01.232Z,50.20
2019-04-27T02:43:35.599Z,55.40
2019-04-27T02:46:02.213Z,46.13
2019-04-27T02:48:29.667Z,44.57
2019-04-27T02:50:59.870Z,50.00
2019-04-27T02:53:46.022Z,50.47
2019-04-27T02:56:12.441Z,53.20
2019-04-27T02:58:40.649Z,55.63
2019-04-27T03:01:09.822Z,46.73
2019-04-27T03:03:35.419Z,52.47
2019-04-27T03:06:02.087Z,42.67
2019-04-27T03:08:29.443Z,48.27
2019-04-27T03:10:56.354Z,47.87
2019-04-27T03:13:30.773Z,54.97
2019-04-27T03:16:15.737Z,52.00
2019-04-27T03:18:47.052Z,50.77
2019-04-27T03:21:21.211Z,53.73
2019-04-27T03:23:49.930Z,54.60
2019-04-27T03:26:24.301Z,52.80
2019-04-27T03:28:52.581Z,52.53
2019-04-27T03:31:21.417Z,50.67
2019-04-27T03:33:52.731Z,48.40
2019-04-27T03:36:15.996Z,47.50
2019-04-27T03:38:42.490Z,51.23
2019-04-27T03:41:09.681Z,54.63
2019-04-27T03:43:36.481Z,48.27
2019-04-27T03:46:03.003Z,53.80
2019-04-27T03:48:29.740Z,50.30
2019-04-27T03:51:15.256Z,47.93
2019-04-27T03:53:43.688Z,45.97
2019-04-27T03:56:14.665Z,44.77
2019-04-27T03:58:49.559Z,49.63
2019-04-27T04:01:16.117Z,42.47
2019-04-27T04:03:42.636Z,48.23
2019-04-27T04:06:10.814Z,50.33
2019-04-27T04:08:39.636Z,44.23
2019-04-27T04:11:24.686Z,48.93
2019-04-27T04:13:53.027Z,55.70
2019-04-27T04:16:21.339Z,46.73
2019-04-27T04:19:00.747Z,46.23
2019-04-27T04:21:29.572Z,54.07
2019-04-27T04:23:55.977Z,48.93
2019-04-27T04:26:22.519Z,59.00
2019-04-27T04:28:50.054Z,51.50
2019-04-27T04:31:16.680Z,51.97
2019-04-27T04:33:43.428Z,66.53
2019-04-27T04:36:10.269Z,53.90
2019-04-27T04:38:37.230Z,57.73
2019-04-27T04:41:05.818Z,73.97
2019-04-27T04:43:34.645Z,65.23
2019-04-27T04:46:04.921Z,69.20
2019-04-27T04:48:31.303Z,76.23
2019-04-27T04:50:59.874Z,80.77
2019-04-27T04:53:26.214Z,79.73
2019-04-27T04:55:52.629Z,84.00
2019-04-27T04:58:20.922Z,80.00
2019-04-27T05:00:49.994Z,85.87
2019-04-27T05:03:15.940Z,84.17
2019-04-27T05:05:42.546Z,95.03
2019-04-27T05:08:09.178Z,94.77
2019-04-27T05:10:35.949Z,99.90
2019-04-27T05:13:02.530Z,97.97
2019-04-27T05:15:29.410Z,104.00
2019-04-27T05:17:55.857Z,94.87
2019-04-27T05:20:30.105Z,109.10
2019-04-27T05:22:56.411Z,99.80
2019-04-27T05:25:23.021Z,109.50
2019-04-27T05:27:49.464Z,104.57
2019-04-27T05:30:16.085Z,107.20
2019-04-27T05:32:42.450Z,113.50
2019-04-27T05:35:09.130Z,103.67
2019-04-27T05:37:35.538Z,108.03
2019-04-27T05:40:02.095Z,106.00
2019-04-27T05:42:29.022Z,104.30
2019-04-27T05:45:11.396Z,108.57
2019-04-27T05:47:43.380Z,98.10
2019-04-27T05:50:13.374Z,95.87
2019-04-27T05:52:40.972Z,94.73
2019-04-27T05:55:08.716Z,104.47
2019-04-27T05:57:36.545Z,94.47
2019-04-27T06:00:09.170Z,102.47
2019-04-27T06:02:35.883Z,98.83
2019-04-27T06:05:04.815Z,96.73
2019-04-27T06:07:31.308Z,95.50
2019-04-27T06:09:59.535Z,83.53
2019-04-27T06:12:26.020Z,89.50
2019-04-27T06:14:52.592Z,87.93
2019-04-27T06:17:19.555Z,91.17
2019-04-27T06:19:46.342Z,81.90
2019-04-27T06:22:12.928Z,83.13
2019-04-27T06:24:39.752Z,78.43
2019-04-27T06:27:09.208Z,86.70
2019-04-27T06:29:40.562Z,75.17
2019-04-27T06:32:03.889Z,77.63
2019-04-27T06:34:30.936Z,82.53
2019-04-27T06:36:59.753Z,80.87
2019-04-27T06:39:26.267Z,75.00
2019-04-27T06:41:52.815Z,74.13
2019-04-27T06:44:19.737Z,73.43
2019-04-27T06:46:46.562Z,76.00
2019-04-27T06:49:13.088Z,77.77
2019-04-27T06:51:40.140Z,76.77
2019-04-27T06:54:06.986Z,72.87
2019-04-27T06:56:33.871Z,70.10
2019-04-27T06:59:00.681Z,68.83
2019-04-27T07:01:27.065Z,71.70
2019-04-27T07:03:54.983Z,73.20
2019-04-27T07:06:22.159Z,71.67
2019-04-27T07:08:49.832Z,70.93
2019-04-27T07:11:16.740Z,69.13
2019-04-27T07:13:43.677Z,65.40
2019-04-27T07:16:10.151Z,67.50
2019-04-27T07:18:39.614Z,69.97
2019-04-27T07:21:16.281Z,68.20
2019-04-27T07:23:35.064Z,66.80
2019-04-27T07:26:01.515Z,73.50
2019-04-27T07:28:29.786Z,63.73
2019-04-27T07:30:56.443Z,60.37
2019-04-27T07:33:22.802Z,69.83
2019-04-27T07:35:51.300Z,65.83
2019-04-27T07:38:19.218Z,56.70
2019-04-27T07:40:48.733Z,66.53
2019-04-27T07:43:22.526Z,61.03
2019-04-27T07:45:50.937Z,63.53
2019-04-27T07:48:18.804Z,58.23
2019-04-27T07:50:45.510Z,64.70
2019-04-27T07:53:11.839Z,55.60
2019-04-27T07:55:39.441Z,59.10
2019-04-27T07:58:06.281Z,58.67
2019-04-27T08:00:32.800Z,61.63
2019-04-27T08:02:59.108Z,61.03
2019-04-27T08:05:26.000Z,63.13
2019-04-27T08:07:52.397Z,58.50
2019-04-27T08:10:19.465Z,57.07
2019-04-27T08:12:46.479Z,54.93
2019-04-27T08:15:12.915Z,62.57
2019-04-27T08:17:42.484Z,54.70
2019-04-27T08:20:09.230Z,57.67
2019-04-27T08:22:35.743Z,67.43
2019-04-27T08:25:02.762Z,62.37
2019-04-27T08:27:31.237Z,55.67
2019-04-27T08:30:14.475Z,64.43
2019-04-27T08:32:42.983Z,63.20
2019-04-27T08:35:09.633Z,64.90
2019-04-27T08:37:38.551Z,61.37
2019-04-27T08:40:05.812Z,57.20
2019-04-27T08:42:32.292Z,58.13
2019-04-27T08:44:59.435Z,54.03
2019-04-27T08:47:26.660Z,59.27
2019-04-27T08:49:54.224Z,54.70
2019-04-27T08:52:20.870Z,58.97
2019-04-27T08:54:49.181Z,62.77
2019-04-27T08:57:15.500Z,58.17
2019-04-27T08:59:43.151Z,57.73
2019-04-27T09:02:09.612Z,54.57
2019-04-27T09:04:36.197Z,55.20
2019-04-27T09:07:22.296Z,52.27
2019-04-27T09:09:50.709Z,57.20
2019-04-27T09:12:33.987Z,55.97
2019-04-27T09:15:02.931Z,56.57
2019-04-27T09:17:31.538Z,52.57
2019-04-27T09:20:00.964Z,51.33
2019-04-27T09:22:28.929Z,47.83
2019-04-27T09:24:55.904Z,39.73
2019-04-27T09:27:22.409Z,47.57
2019-04-27T09:29:50.148Z,44.57
2019-04-27T09:32:19.031Z,46.97
2019-04-27T09:34:46.686Z,43.57
2019-04-27T09:37:13.457Z,44.47
2019-04-27T09:39:40.994Z,45.13
2019-04-27T09:42:07.357Z,40.20
2019-04-27T09:44:36.883Z,44.00
2019-04-27T09:47:02.767Z,41.80
2019-04-27T09:49:29.321Z,43.50
2019-04-27T09:51:55.876Z,42.37
2019-04-27T09:54:23.762Z,43.43
2019-04-27T09:56:50.426Z,45.97
2019-04-27T09:59:16.734Z,43.93
2019-04-27T10:01:46.533Z,48.07
2019-04-27T10:04:11.614Z,49.20
2019-04-27T10:06:38.069Z,47.13
2019-04-27T10:09:06.670Z,45.03
2019-04-27T10:11:33.200Z,46.57
2019-04-27T10:13:59.732Z,46.20
2019-04-27T10:16:26.502Z,38.67
2019-04-27T10:18:53.059Z,60.63
2019-04-27T10:21:19.441Z,36.50
2019-04-27T10:23:46.986Z,37.60
2019-04-27T10:26:15.686Z,62.93
2019-04-27T10:28:42.191Z,44.43
2019-04-27T10:31:08.796Z,44.97
2019-04-27T10:33:35.888Z,45.10
2019-04-27T10:36:03.272Z,41.87
2019-04-27T10:38:29.818Z,39.03
2019-04-27T10:40:56.173Z,41.03
2019-04-27T10:43:22.588Z,40.20
2019-04-27T10:45:50.088Z,37.23
2019-04-27T10:48:17.944Z,36.13
2019-04-27T10:50:46.696Z,40.13
2019-04-27T10:53:13.492Z,35.50
2019-04-27T10:55:40.084Z,46.57
2019-04-27T10:58:06.590Z,38.47
2019-04-27T11:00:44.874Z,38.73
2019-04-27T11:03:13.284Z,33.97
2019-04-27T11:05:47.736Z,40.13
2019-04-27T11:08:14.503Z,41.73
2019-04-27T11:10:41.612Z,35.73
2019-04-27T11:13:08.174Z,35.90
2019-04-27T11:15:37.009Z,31.47
2019-04-27T11:18:03.866Z,27.83
2019-04-27T11:20:33.371Z,37.53
2019-04-27T11:23:07.016Z,33.97
2019-04-27T11:25:28.019Z,28.70
2019-04-27T11:27:57.561Z,27.97
2019-04-27T11:30:23.001Z,24.87
2019-04-27T11:32:49.602Z,36.97
2019-04-27T11:35:21.048Z,30.13
2019-04-27T11:37:50.452Z,26.27
2019-04-27T11:40:19.558Z,28.43
2019-04-27T11:42:46.086Z,25.07
2019-04-27T11:45:13.708Z,25.83
2019-04-27T11:47:40.244Z,22.93
2019-04-27T11:50:08.310Z,22.30
2019-04-27T11:52:35.257Z,20.10
2019-04-27T11:55:02.130Z,20.80
2019-04-27T11:57:28.684Z,20.60
2019-04-27T11:59:56.327Z,26.90
2019-04-27T12:02:25.769Z,17.73
2019-04-27T12:04:53.414Z,17.00
2019-04-27T12:07:20.049Z,15.70
2019-04-27T12:09:48.044Z,38.10
2019-04-27T12:12:18.187Z,17.20
2019-04-27T12:14:45.365Z,14.37
2019-04-27T12:17:11.747Z,16.83
2019-04-27T12:19:38.152Z,22.03
2019-04-27T12:22:06.247Z,23.13
2019-04-27T12:24:33.096Z,20.70
2019-04-27T12:27:13.272Z,30.30
2019-04-27T12:29:41.994Z,51.37
2019-04-27T12:32:08.590Z,23.90
2019-04-27T12:34:36.121Z,24.00
2019-04-27T12:37:03.518Z,24.37
2019-04-27T12:39:29.989Z,32.17
2019-04-27T12:41:56.462Z,27.30
2019-04-27T12:44:23.094Z,24.43
2019-04-27T12:46:49.421Z,28.17
2019-04-27T12:49:16.206Z,25.83
2019-04-27T12:51:43.067Z,31.77
2019-04-27T12:54:16.045Z,30.27
2019-04-27T12:56:45.803Z,29.67
2019-04-27T12:59:17.252Z,30.43
2019-04-27T13:01:46.338Z,25.20
2019-04-27T13:04:15.094Z,27.27
2019-04-27T13:06:41.547Z,27.97
2019-04-27T13:09:08.156Z,30.00
2019-04-27T13:11:36.537Z,35.80
2019-04-27T13:14:03.446Z,34.47
2019-04-27T13:16:30.538Z,44.10
2019-04-27T13:18:57.650Z,48.63
2019-04-27T13:21:26.211Z,34.77
2019-04-27T13:24:03.758Z,37.00
2019-04-27T13:26:21.047Z,33.73
2019-04-27T13:28:47.633Z,32.77
2019-04-27T13:31:15.661Z,27.77
2019-04-27T13:33:42.545Z,29.33
2019-04-27T13:36:08.960Z,27.33
2019-04-27T13:38:36.483Z,26.10
2019-04-27T13:41:09.901Z,25.23
2019-04-27T13:43:37.127Z,22.63
2019-04-27T13:46:08.111Z,20.57
2019-04-27T13:48:53.666Z,20.17
2019-04-27T13:51:34.505Z,41.93
2019-04-27T13:54:00.928Z,34.20
2019-04-27T13:56:27.338Z,22.27
2019-04-27T13:58:53.847Z,20.57
2019-04-27T14:01:20.385Z,21.20
2019-04-27T14:03:46.829Z,26.73
2019-04-27T14:06:13.554Z,19.33
2019-04-27T14:08:40.060Z,21.33
2019-04-27T14:11:06.627Z,20.67
2019-04-27T14:13:33.050Z,22.63
2019-04-27T14:15:59.570Z,31.90
2019-04-27T14:18:26.018Z,33.13
2019-04-27T14:20:52.932Z,46.83
2019-04-27T14:23:21.269Z,45.73
2019-04-27T14:25:47.937Z,27.47
2019-04-27T14:28:14.365Z,26.80
2019-04-27T14:30:41.004Z,32.93
2019-04-27T14:33:08.610Z,31.73
2019-04-27T14:35:35.323Z,28.87
2019-04-27T14:38:01.751Z,32.67
2019-04-27T14:40:28.837Z,34.37
2019-04-27T14:42:55.835Z,29.53
2019-04-27T14:45:22.578Z,28.97
2019-04-27T14:47:49.262Z,25.77
2019-04-27T14:50:15.856Z,25.43
2019-04-27T14:52:42.458Z,26.87
2019-04-27T14:55:10.736Z,29.93
2019-04-27T14:57:39.289Z,29.03
2019-04-27T15:00:06.334Z,26.73
2019-04-27T15:02:33.178Z,33.50
2019-04-27T15:05:00.223Z,31.27
2019-04-27T15:07:26.918Z,32.20
2019-04-27T15:09:54.464Z,35.13
2019-04-27T15:12:25.725Z,28.83
2019-04-27T15:14:53.327Z,30.10
2019-04-27T15:17:23.201Z,31.17
2019-04-27T15:19:52.619Z,36.27
2019-04-27T15:22:20.964Z,36.37
2019-04-27T15:25:00.080Z,46.60
2019-04-27T15:27:17.347Z,39.27
2019-04-27T15:29:44.091Z,34.73
2019-04-27T15:32:15.955Z,36.50
2019-04-27T15:35:05.233Z,28.43
2019-04-27T15:37:39.208Z,28.47
2019-04-27T15:40:12.469Z,23.00
2019-04-27T15:42:54.158Z,22.07
2019-04-27T15:45:24.215Z,27.80
2019-04-27T15:47:54.193Z,23.43
2019-04-27T15:50:18.267Z,21.20
2019-04-27T15:52:45.120Z,26.40
2019-04-27T15:55:31.196Z,22.30
2019-04-27T15:57:42.524Z,31.43
2019-04-27T16:00:17.260Z,25.93
2019-04-27T16:02:39.268Z,24.23
2019-04-27T16:05:08.195Z,21.43
2019-04-27T16:07:35.359Z,18.67
2019-04-27T16:10:04.459Z,19.77
2019-04-27T16:12:31.000Z,18.00
2019-04-27T16:14:57.998Z,32.13
2019-04-27T16:17:24.529Z,82.20
2019-04-27T16:19:51.026Z,20.73
2019-04-27T16:22:18.397Z,15.73
2019-04-27T16:24:45.000Z,17.00
2019-04-27T16:27:11.537Z,16.20
2019-04-27T16:29:38.961Z,18.77
2019-04-27T16:32:09.620Z,19.03
2019-04-27T16:34:37.886Z,16.33
2019-04-27T16:37:03.016Z,18.47
2019-04-27T16:39:29.574Z,17.87
2019-04-27T16:41:55.916Z,19.00
2019-04-27T16:44:22.323Z,15.37
2019-04-27T16:46:50.895Z,15.27
2019-04-27T16:49:18.760Z,15.23
2019-04-27T16:51:45.213Z,16.93
2019-04-27T16:54:17.704Z,26.13
2019-04-27T16:56:39.996Z,25.77
2019-04-27T16:59:33.915Z,15.57
2019-04-27T17:01:34.846Z,19.20
2019-04-27T17:04:01.517Z,14.80
2019-04-27T17:06:29.537Z,13.77
2019-04-27T17:08:57.380Z,19.47
2019-04-27T17:11:24.787Z,17.83
2019-04-27T17:13:56.010Z,17.00
2019-04-27T17:16:31.161Z,17.07
2019-04-27T17:19:05.210Z,14.90
2019-04-27T17:21:37.771Z,14.70
2019-04-27T17:24:02.963Z,14.43
2019-04-27T17:26:29.219Z,12.23
2019-04-27T17:29:10.953Z,13.53
2019-04-27T17:31:38.155Z,19.40
2019-04-27T17:34:05.427Z,15.97
2019-04-27T17:36:32.154Z,19.17
2019-04-27T17:38:58.510Z,19.33
2019-04-27T17:41:25.251Z,21.93
2019-04-27T17:43:51.801Z,17.83
2019-04-27T17:46:19.910Z,22.40
2019-04-27T17:48:48.451Z,17.73
2019-04-27T17:51:16.002Z,23.17
2019-04-27T17:53:42.612Z,20.70
2019-04-27T17:56:09.023Z,23.50
2019-04-27T17:58:39.598Z,22.30
2019-04-27T18:01:08.438Z,24.67
2019-04-27T18:03:35.690Z,24.47
2019-04-27T18:06:02.203Z,22.23
2019-04-27T18:08:29.101Z,20.47
2019-04-27T18:11:00.543Z,17.73
2019-04-27T18:13:26.533Z,18.97
2019-04-27T18:15:54.294Z,21.07
2019-04-27T18:18:27.125Z,30.20
2019-04-27T18:20:53.686Z,38.93
2019-04-27T18:23:31.035Z,18.10
2019-04-27T18:26:17.471Z,24.10
2019-04-27T18:28:50.520Z,26.33
2019-04-27T18:31:17.672Z,22.27
2019-04-27T18:33:44.279Z,18.93
2019-04-27T18:36:14.099Z,23.50
2019-04-27T18:38:39.262Z,22.67
2019-04-27T18:41:07.901Z,16.00
2019-04-27T18:43:34.562Z,19.20
2019-04-27T18:46:01.022Z,19.03
2019-04-27T18:48:40.214Z,28.33
2019-04-27T18:51:08.552Z,55.17
2019-04-27T18:53:35.587Z,23.93
2019-04-27T18:56:05.263Z,20.00
2019-04-27T18:58:31.499Z,18.50
2019-04-27T19:00:58.354Z,28.00
2019-04-27T19:03:25.418Z,19.47
2019-04-27T19:05:51.971Z,23.87
2019-04-27T19:08:19.974Z,16.57
2019-04-27T19:10:48.152Z,27.37
2019-04-27T19:13:15.099Z,17.30
2019-04-27T19:15:41.794Z,15.93
2019-04-27T19:18:08.553Z,15.03
2019-04-27T19:20:35.751Z,21.73
2019-04-27T19:23:02.686Z,19.20
2019-04-27T19:25:34.165Z,22.10
2019-04-27T19:28:11.709Z,50.70
2019-04-27T19:30:43.251Z,58.90
2019-04-27T19:33:09.967Z,22.50
2019-04-27T19:35:37.878Z,29.33
2019-04-27T19:38:04.743Z,25.00
2019-04-27T19:40:31.367Z,21.03
2019-04-27T19:42:58.812Z,32.37
2019-04-27T19:45:25.838Z,19.67
2019-04-27T19:47:52.394Z,23.17
2019-04-27T19:50:19.344Z,19.17
2019-04-27T19:52:46.365Z,20.43
2019-04-27T19:55:12.868Z,19.00
2019-04-27T19:57:42.050Z,16.50
2019-04-27T20:00:10.580Z,17.70
2019-04-27T20:02:39.881Z,21.57
2019-04-27T20:05:07.266Z,23.17
2019-04-27T20:07:34.420Z,21.57
2019-04-27T20:10:03.020Z,23.40
2019-04-27T20:12:31.187Z,20.57
2019-04-27T20:14:58.105Z,23.07
2019-04-27T20:17:31.207Z,23.10
2019-04-27T20:19:58.297Z,23.90
2019-04-27T20:22:25.271Z,25.83
2019-04-27T20:24:51.956Z,24.80
2019-04-27T20:27:18.594Z,25.90
2019-04-27T20:29:45.115Z,22.17
2019-04-27T20:32:11.673Z,26.13
2019-04-27T20:34:38.571Z,24.33
2019-04-27T20:37:05.309Z,25.33
2019-04-27T20:39:31.880Z,26.63
2019-04-27T20:41:58.638Z,26.00
2019-04-27T20:44:25.064Z,30.30
2019-04-27T20:46:51.948Z,25.63
2019-04-27T20:49:20.080Z,28.60
2019-04-27T20:51:51.053Z,29.33
2019-04-27T20:54:19.327Z,25.60
2019-04-27T20:56:47.525Z,27.27
2019-04-27T20:59:14.240Z,26.07
2019-04-27T21:01:40.821Z,25.30
2019-04-27T21:04:07.143Z,27.30
2019-04-27T21:06:38.519Z,28.87
2019-04-27T21:09:11.267Z,24.80
2019-04-27T21:11:47.673Z,21.83
2019-04-27T21:14:14.543Z,21.30
2019-04-27T21:16:41.384Z,24.23
2019-04-27T21:19:08.003Z,24.67
2019-04-27T21:21:34.525Z,26.43
2019-04-27T21:24:02.789Z,18.63
2019-04-27T21:26:29.173Z,24.43
2019-04-27T21:28:55.452Z,95.17
2019-04-27T21:31:21.920Z,24.00
2019-04-27T21:33:48.416Z,28.87
2019-04-27T21:36:15.188Z,24.77
2019-04-27T21:38:42.995Z,21.47
2019-04-27T21:41:09.920Z,21.63
2019-04-27T21:43:37.705Z,19.20
2019-04-27T21:46:04.560Z,18.40
2019-04-27T21:48:31.344Z,17.73
2019-04-27T21:50:58.089Z,19.73
2019-04-27T21:53:41.047Z,15.77
2019-04-27T21:56:12.227Z,14.03
2019-04-27T21:58:38.471Z,16.80
2019-04-27T22:01:07.419Z,15.73
2019-04-27T22:03:34.335Z,13.43
2019-04-27T22:06:01.810Z,17.27
2019-04-27T22:08:28.626Z,14.30
2019-04-27T22:10:55.146Z,12.77
2019-04-27T22:13:22.344Z,11.40
2019-04-27T22:15:49.038Z,14.10
2019-04-27T22:18:15.881Z,23.57
2019-04-27T22:20:42.701Z,22.47
2019-04-27T22:23:23.378Z,13.93
2019-04-27T22:25:52.049Z,14.40
2019-04-27T22:28:20.335Z,14.37
2019-04-27T22:30:47.094Z,16.70
2019-04-27T22:33:13.833Z,17.93
2019-04-27T22:35:41.443Z,14.27
2019-04-27T22:38:08.207Z,16.37
2019-04-27T22:40:51.740Z,19.53
2019-04-27T22:43:34.014Z,12.73
2019-04-27T22:46:01.552Z,16.53
2019-04-27T22:48:28.064Z,14.37
2019-04-27T22:50:55.322Z,13.73
2019-04-27T22:53:21.721Z,18.97
2019-04-27T22:56:06.912Z,14.93
2019-04-27T22:58:59.992Z,14.50
2019-04-27T23:01:21.336Z,13.83
2019-04-27T23:03:51.554Z,15.33
2019-04-27T23:06:18.714Z,15.87
2019-04-27T23:08:47.229Z,15.27
2019-04-27T23:11:13.622Z,15.23
2019-04-27T23:13:40.119Z,14.23
2019-04-27T23:16:08.455Z,16.43
2019-04-27T23:18:34.909Z,18.03
2019-04-27T23:21:01.640Z,14.93
2019-04-27T23:23:28.325Z,14.47
2019-04-27T23:25:54.853Z,14.53
2019-04-27T23:28:21.955Z,15.33
2019-04-27T23:30:56.257Z,17.33
2019-04-27T23:33:23.195Z,15.90
2019-04-27T23:35:51.552Z,19.97
2019-04-27T23:38:18.091Z,18.70
2019-04-27T23:40:44.894Z,18.17
2019-04-27T23:43:11.564Z,14.57
2019-04-27T23:45:38.298Z,13.13
2019-04-27T23:48:04.986Z,14.83
2019-04-27T23:50:33.221Z,13.00
2019-04-27T23:53:02.041Z,16.13
2019-04-27T23:55:31.031Z,14.10
2019-04-27T23:57:57.733Z,21.30
